GLD769 SBJE-SBMQ
Flight info
| Callsign | GLD769 |
|---|---|
| Flight time | 1h 40m |
| Altitude | 36000 |
| Route | SUBVI UZ81 BEL DCT VUSNA UZ7 TILTO |
| Aircraft | B738/M-SDE2E3FGHIRWXY/LB1 |
Departure
| Time | 2026-05-07 22:46 |
|---|---|
| Airport | Comandante Ariston Pessoa Airport (SBJE) |
Arrival
| Time | 2026-05-08 00:27 |
|---|---|
| Airport | Macapá - Alberto Alcolumbre International Airport (SBMQ) |
| Time | Latitude | Longitude | Altitude | Speed | Heading |
|---|---|---|---|---|---|
| 2026-05-07 22:21 | -2.90469 | -40.34815 | 97 ft | 0 kts | 154° |
| 2026-05-07 22:40 | -2.90463 | -40.34818 | 97 ft | 4 kts | 151° |
| 2026-05-07 22:40 | -2.90442 | -40.34834 | 97 ft | 4 kts | 125° |
| 2026-05-07 22:40 | -2.90432 | -40.34857 | 97 ft | 4 kts | 90° |
| 2026-05-07 22:41 | -2.90435 | -40.34876 | 97 ft | 0 kts | 64° |
| 2026-05-07 22:43 | -2.90434 | -40.34873 | 97 ft | 3 kts | 64° |
| 2026-05-07 22:43 | -2.90411 | -40.34827 | 97 ft | 10 kts | 64° |
| 2026-05-07 22:43 | -2.90364 | -40.34784 | 97 ft | 10 kts | 353° |
| 2026-05-07 22:43 | -2.90301 | -40.34810 | 97 ft | 10 kts | 334° |
| 2026-05-07 22:44 | -2.90244 | -40.34839 | 99 ft | 9 kts | 332° |
| 2026-05-07 22:44 | -2.90215 | -40.34870 | 98 ft | 3 kts | 279° |
| 2026-05-07 22:44 | -2.90216 | -40.34877 | 98 ft | 0 kts | 261° |
| 2026-05-07 22:44 | -2.90224 | -40.34897 | 98 ft | 0 kts | 244° |
| 2026-05-07 22:46 | -2.90227 | -40.34903 | 99 ft | 13 kts | 244° |
| 2026-05-07 22:46 | -2.90409 | -40.35270 | 100 ft | 103 kts | 243° |
| 2026-05-07 22:46 | -2.90855 | -40.36156 | 136 ft | 175 kts | 243° |
| 2026-05-07 22:46 | -2.91385 | -40.37298 | 888 ft | 187 kts | 244° |
| 2026-05-07 22:47 | -2.91814 | -40.38522 | 1978 ft | 188 kts | 257° |
| 2026-05-07 22:47 | -2.92015 | -40.39911 | 2529 ft | 216 kts | 260° |
| 2026-05-07 22:47 | -2.92220 | -40.41504 | 2823 ft | 241 kts | 261° |
| 2026-05-07 22:47 | -2.92439 | -40.43244 | 3267 ft | 266 kts | 260° |
| 2026-05-07 22:48 | -2.92679 | -40.45122 | 4001 ft | 276 kts | 261° |
| 2026-05-07 22:48 | -2.92927 | -40.47038 | 4923 ft | 279 kts | 261° |
| 2026-05-07 22:48 | -2.93180 | -40.48972 | 5846 ft | 282 kts | 261° |
| 2026-05-07 22:48 | -2.93439 | -40.50936 | 6715 ft | 286 kts | 262° |
| 2026-05-07 22:49 | -2.93703 | -40.52916 | 7555 ft | 289 kts | 262° |
| 2026-05-07 22:49 | -2.93974 | -40.54932 | 8303 ft | 297 kts | 262° |
| 2026-05-07 22:49 | -2.94253 | -40.56999 | 9124 ft | 300 kts | 262° |
| 2026-05-07 22:49 | -2.94535 | -40.59081 | 9927 ft | 305 kts | 262° |
| 2026-05-07 22:50 | -2.94825 | -40.61223 | 10415 ft | 322 kts | 262° |
| 2026-05-07 22:50 | -2.95139 | -40.63529 | 10591 ft | 347 kts | 262° |
| 2026-05-07 22:50 | -2.95474 | -40.65989 | 10893 ft | 364 kts | 262° |
| 2026-05-07 22:50 | -2.95819 | -40.68526 | 11475 ft | 371 kts | 262° |
| 2026-05-07 22:51 | -2.96168 | -40.71089 | 12167 ft | 374 kts | 262° |
| 2026-05-07 22:51 | -2.96522 | -40.73686 | 12854 ft | 378 kts | 262° |
| 2026-05-07 22:51 | -2.96879 | -40.76304 | 13499 ft | 382 kts | 262° |
| 2026-05-07 22:51 | -2.97240 | -40.78959 | 14098 ft | 387 kts | 262° |
| 2026-05-07 22:52 | -2.97599 | -40.81599 | 14705 ft | 389 kts | 262° |
| 2026-05-07 22:52 | -2.97965 | -40.84285 | 15342 ft | 391 kts | 262° |
| 2026-05-07 22:52 | -2.98333 | -40.86990 | 15934 ft | 394 kts | 262° |
| 2026-05-07 22:52 | -2.98704 | -40.89715 | 16508 ft | 397 kts | 263° |
| 2026-05-07 22:53 | -2.99077 | -40.92457 | 17094 ft | 399 kts | 263° |
| 2026-05-07 22:53 | -2.99453 | -40.95224 | 17606 ft | 404 kts | 263° |
| 2026-05-07 22:53 | -2.99834 | -40.98023 | 18160 ft | 406 kts | 263° |
| 2026-05-07 22:53 | -3.00085 | -40.99873 | 18539 ft | 406 kts | 263° |
| 2026-05-07 22:54 | -3.00467 | -41.02676 | 19070 ft | 406 kts | 263° |
| 2026-05-07 22:54 | -3.00850 | -41.05492 | 19517 ft | 409 kts | 264° |
| 2026-05-07 22:54 | -3.01235 | -41.08325 | 19955 ft | 412 kts | 264° |
| 2026-05-07 22:54 | -3.01622 | -41.11175 | 20438 ft | 414 kts | 264° |
| 2026-05-07 22:55 | -3.02010 | -41.14031 | 20902 ft | 415 kts | 263° |
| 2026-05-07 22:55 | -3.02400 | -41.16901 | 21369 ft | 417 kts | 263° |
| 2026-05-07 22:55 | -3.02919 | -41.20722 | 21947 ft | 420 kts | 263° |
| 2026-05-07 22:55 | -3.03185 | -41.22684 | 22230 ft | 421 kts | 263° |
| 2026-05-07 22:56 | -3.03580 | -41.25591 | 22645 ft | 424 kts | 263° |
| 2026-05-07 22:56 | -3.03977 | -41.28518 | 23058 ft | 426 kts | 263° |
| 2026-05-07 22:56 | -3.04377 | -41.31464 | 23468 ft | 427 kts | 264° |
| 2026-05-07 22:56 | -3.04773 | -41.34383 | 23797 ft | 429 kts | 263° |
| 2026-05-07 22:57 | -3.05176 | -41.37350 | 24102 ft | 432 kts | 263° |
| 2026-05-07 22:57 | -3.05580 | -41.40334 | 24409 ft | 434 kts | 263° |
| 2026-05-07 22:57 | -3.05988 | -41.43337 | 24738 ft | 435 kts | 263° |
| 2026-05-07 22:57 | -3.06395 | -41.46340 | 25069 ft | 436 kts | 262° |
| 2026-05-07 22:58 | -3.06804 | -41.49354 | 25371 ft | 438 kts | 262° |
| 2026-05-07 22:58 | -3.07214 | -41.52382 | 25681 ft | 440 kts | 262° |
| 2026-05-07 22:58 | -3.07626 | -41.55421 | 25993 ft | 442 kts | 262° |
| 2026-05-07 22:58 | -3.08039 | -41.58473 | 26266 ft | 444 kts | 262° |
| 2026-05-07 22:59 | -3.08456 | -41.61546 | 26540 ft | 446 kts | 262° |
| 2026-05-07 22:59 | -3.08873 | -41.64629 | 26818 ft | 448 kts | 262° |
| 2026-05-07 22:59 | -3.09291 | -41.67719 | 27102 ft | 450 kts | 261° |
| 2026-05-07 22:59 | -3.09711 | -41.70824 | 27387 ft | 451 kts | 261° |
| 2026-05-07 23:00 | -3.10133 | -41.73940 | 27653 ft | 453 kts | 261° |
| 2026-05-07 23:00 | -3.10505 | -41.77081 | 27900 ft | 456 kts | 266° |
| 2026-05-07 23:00 | -3.10204 | -41.80239 | 28117 ft | 460 kts | 280° |
| 2026-05-07 23:00 | -3.09522 | -41.83371 | 28398 ft | 461 kts | 281° |
| 2026-05-07 23:01 | -3.08824 | -41.86512 | 28625 ft | 464 kts | 281° |
| 2026-05-07 23:01 | -3.08136 | -41.89671 | 28836 ft | 466 kts | 280° |
| 2026-05-07 23:01 | -3.07473 | -41.92808 | 29054 ft | 468 kts | 280° |
| 2026-05-07 23:01 | -3.06815 | -41.96000 | 29282 ft | 469 kts | 279° |
| 2026-05-07 23:02 | -3.06164 | -41.99205 | 29509 ft | 471 kts | 279° |
| 2026-05-07 23:02 | -3.05512 | -42.02423 | 29711 ft | 473 kts | 279° |
| 2026-05-07 23:02 | -3.04858 | -42.05654 | 29910 ft | 475 kts | 279° |
| 2026-05-07 23:02 | -3.04199 | -42.08903 | 30098 ft | 476 kts | 279° |
| 2026-05-07 23:03 | -3.03539 | -42.12151 | 30342 ft | 476 kts | 279° |
| 2026-05-07 23:03 | -3.02879 | -42.15386 | 30675 ft | 473 kts | 279° |
| 2026-05-07 23:03 | -3.02214 | -42.18601 | 31036 ft | 470 kts | 280° |
| 2026-05-07 23:03 | -3.01544 | -42.21790 | 31367 ft | 468 kts | 280° |
| 2026-05-07 23:04 | -3.00872 | -42.24976 | 31666 ft | 467 kts | 280° |
| 2026-05-07 23:04 | -3.00201 | -42.28153 | 31969 ft | 466 kts | 280° |
| 2026-05-07 23:04 | -2.99533 | -42.31320 | 32304 ft | 464 kts | 281° |
| 2026-05-07 23:04 | -2.98870 | -42.34472 | 32657 ft | 462 kts | 281° |
| 2026-05-07 23:05 | -2.98209 | -42.37616 | 33014 ft | 460 kts | 281° |
| 2026-05-07 23:05 | -2.97553 | -42.40741 | 33351 ft | 458 kts | 281° |
| 2026-05-07 23:05 | -2.96898 | -42.43856 | 33693 ft | 457 kts | 281° |
| 2026-05-07 23:05 | -2.96248 | -42.46956 | 34051 ft | 454 kts | 281° |
| 2026-05-07 23:06 | -2.95600 | -42.50043 | 34353 ft | 453 kts | 281° |
| 2026-05-07 23:06 | -2.94953 | -42.53122 | 34598 ft | 452 kts | 281° |
| 2026-05-07 23:06 | -2.94306 | -42.56200 | 34833 ft | 452 kts | 281° |
| 2026-05-07 23:06 | -2.93660 | -42.59276 | 35089 ft | 451 kts | 281° |
| 2026-05-07 23:07 | -2.93015 | -42.62345 | 35361 ft | 450 kts | 281° |
| 2026-05-07 23:07 | -2.92372 | -42.65403 | 35663 ft | 448 kts | 281° |
| 2026-05-07 23:07 | -2.91732 | -42.68448 | 35922 ft | 447 kts | 281° |
| 2026-05-07 23:08 | -2.90444 | -42.74575 | 35923 ft | 450 kts | 281° |
| 2026-05-07 23:08 | -2.89160 | -42.80678 | 35922 ft | 446 kts | 281° |
| 2026-05-07 23:09 | -2.87887 | -42.86731 | 35924 ft | 443 kts | 281° |
| 2026-05-07 23:09 | -2.86626 | -42.92720 | 35922 ft | 442 kts | 281° |
| 2026-05-07 23:10 | -2.85362 | -42.98727 | 35935 ft | 441 kts | 281° |
| 2026-05-07 23:10 | -2.84097 | -43.04735 | 35927 ft | 441 kts | 281° |
| 2026-05-07 23:11 | -2.82831 | -43.10746 | 35930 ft | 442 kts | 281° |
| 2026-05-07 23:11 | -2.81562 | -43.16772 | 35927 ft | 443 kts | 281° |
| 2026-05-07 23:12 | -2.80285 | -43.22829 | 35930 ft | 445 kts | 281° |
| 2026-05-07 23:12 | -2.79007 | -43.28895 | 35926 ft | 447 kts | 281° |
| 2026-05-07 23:13 | -2.77724 | -43.34982 | 35920 ft | 448 kts | 281° |
| 2026-05-07 23:13 | -2.76436 | -43.41089 | 35926 ft | 449 kts | 281° |
| 2026-05-07 23:14 | -2.75156 | -43.47154 | 35931 ft | 449 kts | 281° |
| 2026-05-07 23:14 | -2.73865 | -43.53276 | 35930 ft | 450 kts | 281° |
| 2026-05-07 23:15 | -2.72573 | -43.59396 | 35928 ft | 449 kts | 281° |
| 2026-05-07 23:15 | -2.71283 | -43.65497 | 35926 ft | 449 kts | 282° |
| 2026-05-07 23:16 | -2.69992 | -43.71595 | 35928 ft | 448 kts | 282° |
| 2026-05-07 23:16 | -2.68703 | -43.77682 | 35928 ft | 447 kts | 282° |
| 2026-05-07 23:17 | -2.67415 | -43.83769 | 35927 ft | 446 kts | 282° |
| 2026-05-07 23:17 | -2.66129 | -43.89844 | 35925 ft | 446 kts | 282° |
| 2026-05-07 23:18 | -2.64853 | -43.95870 | 35933 ft | 446 kts | 282° |
| 2026-05-07 23:18 | -2.63570 | -44.01934 | 35931 ft | 446 kts | 282° |
| 2026-05-07 23:19 | -2.62287 | -44.07996 | 35916 ft | 446 kts | 282° |
| 2026-05-07 23:19 | -2.61003 | -44.14064 | 35914 ft | 446 kts | 282° |
| 2026-05-07 23:20 | -2.59718 | -44.20134 | 35913 ft | 446 kts | 282° |
| 2026-05-07 23:20 | -2.58360 | -44.26188 | 35911 ft | 447 kts | 284° |
| 2026-05-07 23:21 | -2.56676 | -44.32169 | 35915 ft | 447 kts | 286° |
| 2026-05-07 23:21 | -2.54933 | -44.38140 | 35915 ft | 448 kts | 285° |
| 2026-05-07 23:22 | -2.53218 | -44.44126 | 35918 ft | 448 kts | 285° |
| 2026-05-07 23:22 | -2.51534 | -44.50081 | 35925 ft | 448 kts | 285° |
| 2026-05-07 23:23 | -2.49843 | -44.56080 | 35931 ft | 448 kts | 285° |
| 2026-05-07 23:23 | -2.48147 | -44.62090 | 35930 ft | 449 kts | 285° |
| 2026-05-07 23:24 | -2.46449 | -44.68101 | 35931 ft | 449 kts | 285° |
| 2026-05-07 23:24 | -2.44752 | -44.74107 | 35933 ft | 449 kts | 285° |
| 2026-05-07 23:25 | -2.43055 | -44.80115 | 35929 ft | 449 kts | 285° |
| 2026-05-07 23:25 | -2.41356 | -44.86130 | 35929 ft | 449 kts | 285° |
| 2026-05-07 23:26 | -2.39655 | -44.92138 | 35928 ft | 449 kts | 285° |
| 2026-05-07 23:26 | -2.37949 | -44.98152 | 35930 ft | 449 kts | 285° |
| 2026-05-07 23:27 | -2.35400 | -45.07137 | 35928 ft | 449 kts | 285° |
| 2026-05-07 23:27 | -2.33695 | -45.13151 | 35928 ft | 449 kts | 285° |
| 2026-05-07 23:28 | -2.31990 | -45.19160 | 35929 ft | 449 kts | 285° |
| 2026-05-07 23:28 | -2.30286 | -45.25169 | 35926 ft | 449 kts | 285° |
| 2026-05-07 23:29 | -2.28580 | -45.31182 | 35926 ft | 449 kts | 285° |
| 2026-05-07 23:29 | -2.26875 | -45.37190 | 35926 ft | 449 kts | 285° |
| 2026-05-07 23:30 | -2.25171 | -45.43199 | 35926 ft | 449 kts | 285° |
| 2026-05-07 23:30 | -2.23478 | -45.49174 | 35927 ft | 449 kts | 285° |
| 2026-05-07 23:31 | -2.21776 | -45.55178 | 35928 ft | 449 kts | 285° |
| 2026-05-07 23:31 | -2.20074 | -45.61184 | 35927 ft | 449 kts | 285° |
| 2026-05-07 23:32 | -2.18371 | -45.67191 | 35925 ft | 449 kts | 285° |
| 2026-05-07 23:32 | -2.16668 | -45.73196 | 35927 ft | 449 kts | 285° |
| 2026-05-07 23:33 | -2.14964 | -45.79204 | 35927 ft | 449 kts | 285° |
| 2026-05-07 23:33 | -2.13259 | -45.85214 | 35927 ft | 449 kts | 285° |
| 2026-05-07 23:34 | -2.11555 | -45.91220 | 35924 ft | 449 kts | 285° |
| 2026-05-07 23:34 | -2.09850 | -45.97230 | 35925 ft | 449 kts | 285° |
| 2026-05-07 23:35 | -2.08147 | -46.03234 | 35928 ft | 449 kts | 285° |
| 2026-05-07 23:35 | -2.06442 | -46.09242 | 35925 ft | 449 kts | 285° |
| 2026-05-07 23:36 | -2.04734 | -46.15256 | 35927 ft | 449 kts | 285° |
| 2026-05-07 23:36 | -2.03040 | -46.21222 | 35927 ft | 450 kts | 285° |
| 2026-05-07 23:37 | -2.01331 | -46.27243 | 35929 ft | 450 kts | 285° |
| 2026-05-07 23:37 | -1.99622 | -46.33261 | 35931 ft | 450 kts | 285° |
| 2026-05-07 23:38 | -1.97910 | -46.39286 | 35926 ft | 451 kts | 285° |
| 2026-05-07 23:38 | -1.96196 | -46.45322 | 35930 ft | 451 kts | 285° |
| 2026-05-07 23:39 | -1.94482 | -46.51355 | 35932 ft | 451 kts | 285° |
| 2026-05-07 23:39 | -1.92765 | -46.57396 | 35932 ft | 451 kts | 285° |
| 2026-05-07 23:40 | -1.91048 | -46.63438 | 35930 ft | 451 kts | 286° |
| 2026-05-07 23:40 | -1.89332 | -46.69474 | 35930 ft | 451 kts | 286° |
| 2026-05-07 23:41 | -1.87617 | -46.75509 | 35928 ft | 452 kts | 286° |
| 2026-05-07 23:41 | -1.85911 | -46.81507 | 35936 ft | 451 kts | 286° |
| 2026-05-07 23:42 | -1.84194 | -46.87545 | 35934 ft | 451 kts | 286° |
| 2026-05-07 23:42 | -1.82478 | -46.93580 | 35934 ft | 451 kts | 286° |
| 2026-05-07 23:43 | -1.80762 | -46.99614 | 35927 ft | 451 kts | 286° |
| 2026-05-07 23:43 | -1.79044 | -47.05652 | 35936 ft | 451 kts | 286° |
| 2026-05-07 23:44 | -1.77617 | -47.10670 | 35933 ft | 451 kts | 286° |
| 2026-05-07 23:44 | -1.75900 | -47.16705 | 35936 ft | 451 kts | 286° |
| 2026-05-07 23:45 | -1.74182 | -47.22742 | 35935 ft | 452 kts | 286° |
| 2026-05-07 23:45 | -1.72463 | -47.28782 | 35929 ft | 452 kts | 286° |
| 2026-05-07 23:46 | -1.70744 | -47.34822 | 35935 ft | 452 kts | 286° |
| 2026-05-07 23:46 | -1.69023 | -47.40867 | 35932 ft | 452 kts | 286° |
| 2026-05-07 23:47 | -1.67302 | -47.46912 | 35938 ft | 452 kts | 286° |
| 2026-05-07 23:47 | -1.65581 | -47.52955 | 35933 ft | 452 kts | 286° |
| 2026-05-07 23:48 | -1.63861 | -47.58999 | 35939 ft | 452 kts | 286° |
| 2026-05-07 23:48 | -1.62141 | -47.65038 | 35935 ft | 452 kts | 286° |
| 2026-05-07 23:49 | -1.60421 | -47.71081 | 35925 ft | 452 kts | 286° |
| 2026-05-07 23:49 | -1.58699 | -47.77130 | 35934 ft | 452 kts | 286° |
| 2026-05-07 23:50 | -1.56987 | -47.83142 | 35940 ft | 452 kts | 286° |
| 2026-05-07 23:50 | -1.55256 | -47.89188 | 35944 ft | 452 kts | 286° |
| 2026-05-07 23:51 | -1.53517 | -47.95240 | 35935 ft | 453 kts | 286° |
| 2026-05-07 23:51 | -1.51779 | -48.01290 | 35935 ft | 453 kts | 286° |
| 2026-05-07 23:52 | -1.50039 | -48.07354 | 35933 ft | 454 kts | 286° |
| 2026-05-07 23:52 | -1.48299 | -48.13417 | 35935 ft | 454 kts | 286° |
| 2026-05-07 23:53 | -1.46556 | -48.19487 | 35935 ft | 455 kts | 286° |
| 2026-05-07 23:53 | -1.44808 | -48.25578 | 35940 ft | 456 kts | 286° |
| 2026-05-07 23:54 | -1.43072 | -48.31625 | 35941 ft | 456 kts | 286° |
| 2026-05-07 23:54 | -1.41319 | -48.37732 | 35934 ft | 457 kts | 287° |
| 2026-05-07 23:55 | -1.39564 | -48.43844 | 35935 ft | 458 kts | 286° |
| 2026-05-07 23:55 | -1.37606 | -48.49895 | 35933 ft | 458 kts | 294° |
| 2026-05-07 23:56 | -1.34902 | -48.55663 | 35939 ft | 458 kts | 296° |
| 2026-05-07 23:56 | -1.32133 | -48.61386 | 35936 ft | 457 kts | 296° |
| 2026-05-07 23:57 | -1.29401 | -48.67134 | 35932 ft | 457 kts | 295° |
| 2026-05-07 23:57 | -1.26704 | -48.72881 | 35931 ft | 457 kts | 295° |
| 2026-05-07 23:58 | -1.24016 | -48.78631 | 35936 ft | 456 kts | 295° |
| 2026-05-07 23:58 | -1.21330 | -48.84375 | 35939 ft | 456 kts | 295° |
| 2026-05-07 23:59 | -1.18663 | -48.90077 | 35929 ft | 456 kts | 295° |
| 2026-05-07 23:59 | -1.15960 | -48.95853 | 35932 ft | 456 kts | 295° |
| 2026-05-08 00:00 | -1.13291 | -49.01555 | 35936 ft | 455 kts | 295° |
| 2026-05-08 00:00 | -1.10612 | -49.07279 | 35935 ft | 455 kts | 295° |
| 2026-05-08 00:01 | -1.07936 | -49.12997 | 35925 ft | 454 kts | 295° |
| 2026-05-08 00:01 | -1.05259 | -49.18715 | 35939 ft | 454 kts | 295° |
| 2026-05-08 00:02 | -1.02581 | -49.24437 | 35938 ft | 454 kts | 295° |
| 2026-05-08 00:02 | -0.99901 | -49.30161 | 35935 ft | 455 kts | 295° |
| 2026-05-08 00:03 | -0.97220 | -49.35888 | 35934 ft | 455 kts | 295° |
| 2026-05-08 00:03 | -0.94538 | -49.41617 | 35937 ft | 456 kts | 295° |
| 2026-05-08 00:04 | -0.91837 | -49.47386 | 35358 ft | 464 kts | 295° |
| 2026-05-08 00:04 | -0.90474 | -49.50298 | 34783 ft | 463 kts | 295° |
| 2026-05-08 00:04 | -0.89109 | -49.53212 | 34118 ft | 464 kts | 296° |
| 2026-05-08 00:05 | -0.87737 | -49.56143 | 33326 ft | 467 kts | 295° |
| 2026-05-08 00:05 | -0.86358 | -49.59087 | 32582 ft | 468 kts | 295° |
| 2026-05-08 00:05 | -0.84997 | -49.61995 | 32024 ft | 466 kts | 295° |
| 2026-05-08 00:05 | -0.83629 | -49.64916 | 31476 ft | 463 kts | 295° |
| 2026-05-08 00:06 | -0.82268 | -49.67818 | 30971 ft | 460 kts | 295° |
| 2026-05-08 00:06 | -0.80767 | -49.70642 | 30182 ft | 464 kts | 300° |
| 2026-05-08 00:06 | -0.79056 | -49.73423 | 29485 ft | 463 kts | 302° |
| 2026-05-08 00:06 | -0.77338 | -49.76086 | 28889 ft | 460 kts | 302° |
| 2026-05-08 00:07 | -0.75599 | -49.78757 | 28347 ft | 455 kts | 302° |
| 2026-05-08 00:07 | -0.73893 | -49.81398 | 27821 ft | 451 kts | 302° |
| 2026-05-08 00:07 | -0.72215 | -49.84028 | 27307 ft | 446 kts | 302° |
| 2026-05-08 00:07 | -0.70564 | -49.86640 | 26801 ft | 442 kts | 302° |
| 2026-05-08 00:08 | -0.68938 | -49.89229 | 26303 ft | 438 kts | 301° |
| 2026-05-08 00:08 | -0.67322 | -49.91809 | 25807 ft | 438 kts | 302° |
| 2026-05-08 00:08 | -0.65708 | -49.94388 | 25243 ft | 437 kts | 301° |
| 2026-05-08 00:08 | -0.64099 | -49.96959 | 24756 ft | 434 kts | 301° |
| 2026-05-08 00:09 | -0.62505 | -49.99505 | 24254 ft | 431 kts | 301° |
| 2026-05-08 00:09 | -0.60918 | -50.02039 | 23751 ft | 429 kts | 301° |
| 2026-05-08 00:09 | -0.59337 | -50.04563 | 23191 ft | 427 kts | 301° |
| 2026-05-08 00:09 | -0.57767 | -50.07069 | 22663 ft | 423 kts | 301° |
| 2026-05-08 00:10 | -0.56215 | -50.09546 | 22156 ft | 419 kts | 301° |
| 2026-05-08 00:10 | -0.54673 | -50.12007 | 21671 ft | 416 kts | 301° |
| 2026-05-08 00:10 | -0.53145 | -50.14447 | 21175 ft | 412 kts | 301° |
| 2026-05-08 00:10 | -0.51631 | -50.16865 | 20697 ft | 409 kts | 301° |
| 2026-05-08 00:11 | -0.50126 | -50.19267 | 20218 ft | 405 kts | 301° |
| 2026-05-08 00:11 | -0.48657 | -50.21612 | 19755 ft | 403 kts | 302° |
| 2026-05-08 00:11 | -0.47217 | -50.24002 | 19245 ft | 400 kts | 297° |
| 2026-05-08 00:11 | -0.46162 | -50.26562 | 18753 ft | 397 kts | 288° |
| 2026-05-08 00:12 | -0.45287 | -50.29172 | 18260 ft | 396 kts | 288° |
| 2026-05-08 00:12 | -0.44419 | -50.31775 | 17733 ft | 393 kts | 288° |
| 2026-05-08 00:12 | -0.43554 | -50.34354 | 17245 ft | 390 kts | 288° |
| 2026-05-08 00:12 | -0.42692 | -50.36905 | 16783 ft | 386 kts | 288° |
| 2026-05-08 00:13 | -0.41832 | -50.39433 | 16315 ft | 383 kts | 288° |
| 2026-05-08 00:13 | -0.40978 | -50.41935 | 15866 ft | 379 kts | 288° |
| 2026-05-08 00:13 | -0.40128 | -50.44421 | 15412 ft | 376 kts | 289° |
| 2026-05-08 00:13 | -0.39283 | -50.46889 | 14949 ft | 374 kts | 289° |
| 2026-05-08 00:14 | -0.38443 | -50.49339 | 14491 ft | 373 kts | 289° |
| 2026-05-08 00:14 | -0.37604 | -50.51788 | 14039 ft | 371 kts | 289° |
| 2026-05-08 00:14 | -0.36769 | -50.54221 | 13592 ft | 369 kts | 289° |
| 2026-05-08 00:14 | -0.35940 | -50.56641 | 13105 ft | 369 kts | 289° |
| 2026-05-08 00:15 | -0.35120 | -50.59031 | 12623 ft | 367 kts | 289° |
| 2026-05-08 00:15 | -0.34299 | -50.61426 | 12193 ft | 363 kts | 289° |
| 2026-05-08 00:15 | -0.33485 | -50.63802 | 11762 ft | 359 kts | 289° |
| 2026-05-08 00:15 | -0.32679 | -50.66154 | 11336 ft | 356 kts | 289° |
| 2026-05-08 00:16 | -0.31879 | -50.68485 | 10917 ft | 354 kts | 289° |
| 2026-05-08 00:16 | -0.31086 | -50.70800 | 10561 ft | 349 kts | 289° |
| 2026-05-08 00:16 | -0.30310 | -50.73064 | 10385 ft | 339 kts | 289° |
| 2026-05-08 00:16 | -0.29558 | -50.75259 | 10228 ft | 329 kts | 289° |
| 2026-05-08 00:17 | -0.28828 | -50.77390 | 10084 ft | 320 kts | 289° |
| 2026-05-08 00:17 | -0.28118 | -50.79458 | 9953 ft | 310 kts | 289° |
| 2026-05-08 00:17 | -0.27432 | -50.81462 | 9877 ft | 296 kts | 289° |
| 2026-05-08 00:17 | -0.26767 | -50.83400 | 9402 ft | 293 kts | 289° |
| 2026-05-08 00:18 | -0.26092 | -50.85291 | 9121 ft | 286 kts | 296° |
| 2026-05-08 00:18 | -0.24851 | -50.86755 | 8763 ft | 273 kts | 332° |
| 2026-05-08 00:18 | -0.23106 | -50.87311 | 8517 ft | 259 kts | 355° |
| 2026-05-08 00:18 | -0.21328 | -50.87363 | 8252 ft | 255 kts | 6° |
| 2026-05-08 00:19 | -0.19554 | -50.87205 | 7995 ft | 257 kts | 8° |
| 2026-05-08 00:19 | -0.17733 | -50.87004 | 7731 ft | 270 kts | 9° |
| 2026-05-08 00:19 | -0.15865 | -50.86798 | 7417 ft | 275 kts | 9° |
| 2026-05-08 00:19 | -0.13985 | -50.86601 | 7153 ft | 269 kts | 8° |
| 2026-05-08 00:20 | -0.12091 | -50.86408 | 7061 ft | 281 kts | 3° |
| 2026-05-08 00:20 | -0.10078 | -50.86212 | 7239 ft | 300 kts | 7° |
| 2026-05-08 00:20 | -0.07947 | -50.86003 | 7449 ft | 313 kts | 11° |
| 2026-05-08 00:20 | -0.05776 | -50.85793 | 7216 ft | 314 kts | 8° |
| 2026-05-08 00:21 | -0.03634 | -50.85590 | 7162 ft | 303 kts | 8° |
| 2026-05-08 00:21 | -0.01566 | -50.85395 | 6922 ft | 292 kts | 8° |
| 2026-05-08 00:21 | 0.00396 | -50.85210 | 6800 ft | 275 kts | 8° |
| 2026-05-08 00:21 | 0.02271 | -50.85032 | 6435 ft | 269 kts | 8° |
| 2026-05-08 00:22 | 0.04136 | -50.84855 | 5929 ft | 268 kts | 8° |
| 2026-05-08 00:22 | 0.05986 | -50.84679 | 5479 ft | 266 kts | 8° |
| 2026-05-08 00:22 | 0.07827 | -50.84699 | 5045 ft | 267 kts | 347° |
| 2026-05-08 00:22 | 0.09442 | -50.85602 | 4628 ft | 269 kts | 317° |
| 2026-05-08 00:23 | 0.10642 | -50.87030 | 4218 ft | 269 kts | 308° |
| 2026-05-08 00:23 | 0.11734 | -50.88490 | 4200 ft | 261 kts | 308° |
| 2026-05-08 00:23 | 0.12810 | -50.89922 | 4206 ft | 254 kts | 308° |
| 2026-05-08 00:23 | 0.13726 | -50.91412 | 4115 ft | 253 kts | 289° |
| 2026-05-08 00:24 | 0.13840 | -50.93136 | 3984 ft | 249 kts | 258° |
| 2026-05-08 00:24 | 0.13221 | -50.94685 | 3924 ft | 235 kts | 239° |
| 2026-05-08 00:24 | 0.12370 | -50.96019 | 3790 ft | 219 kts | 236° |
| 2026-05-08 00:24 | 0.11560 | -50.97237 | 3680 ft | 202 kts | 236° |
| 2026-05-08 00:25 | 0.10814 | -50.98370 | 3503 ft | 190 kts | 236° |
| 2026-05-08 00:25 | 0.10087 | -50.99468 | 3179 ft | 189 kts | 236° |
| 2026-05-08 00:25 | 0.09329 | -51.00611 | 2500 ft | 203 kts | 237° |
| 2026-05-08 00:25 | 0.08552 | -51.01812 | 1813 ft | 208 kts | 238° |
| 2026-05-08 00:26 | 0.07767 | -51.03028 | 1164 ft | 209 kts | 238° |
| 2026-05-08 00:26 | 0.06977 | -51.04236 | 624 ft | 201 kts | 232° |
| 2026-05-08 00:26 | 0.06267 | -51.05336 | 299 ft | 177 kts | 232° |
| 2026-05-08 00:26 | 0.05639 | -51.06316 | 89 ft | 155 kts | 227° |
| 2026-05-08 00:27 | 0.05117 | -51.07113 | 31 ft | 115 kts | 228° |
| 2026-05-08 00:27 | 0.04794 | -51.07607 | 29 ft | 60 kts | 238° |
| 2026-05-08 00:27 | 0.04662 | -51.07850 | 25 ft | 21 kts | 239° |
| 2026-05-08 00:27 | 0.04573 | -51.07936 | 27 ft | 15 kts | 214° |
| 2026-05-08 00:28 | 0.04577 | -51.07977 | 27 ft | 6 kts | 8° |
| 2026-05-08 00:28 | 0.04607 | -51.07934 | 26 ft | 12 kts | 61° |
| 2026-05-08 00:28 | 0.04664 | -51.07836 | 26 ft | 20 kts | 58° |
| 2026-05-08 00:28 | 0.04752 | -51.07699 | 27 ft | 26 kts | 57° |
| 2026-05-08 00:29 | 0.04843 | -51.07559 | 26 ft | 24 kts | 56° |
| 2026-05-08 00:29 | 0.04929 | -51.07426 | 27 ft | 22 kts | 56° |
| 2026-05-08 00:29 | 0.05004 | -51.07305 | 28 ft | 20 kts | 58° |
| 2026-05-08 00:29 | 0.05076 | -51.07198 | 28 ft | 17 kts | 56° |
| 2026-05-08 00:30 | 0.05098 | -51.07115 | 29 ft | 11 kts | 123° |
| 2026-05-08 00:30 | 0.05036 | -51.07066 | 27 ft | 12 kts | 148° |
| 2026-05-08 00:30 | 0.05012 | -51.06996 | 26 ft | 11 kts | 83° |
| 2026-05-08 00:30 | 0.05015 | -51.06922 | 26 ft | 10 kts | 81° |
| 2026-05-08 00:31 | 0.05036 | -51.06878 | 26 ft | 3 kts | 59° |
| 2026-05-08 00:31 | 0.05039 | -51.06872 | 26 ft | 0 kts | 58° |
| 2026-05-08 00:31 | 0.05050 | -51.06856 | 30 ft | 6 kts | 57° |
| 2026-05-08 00:31 | 0.05076 | -51.06814 | 27 ft | 2 kts | 71° |
| 2026-05-08 00:32 | 0.05072 | -51.06788 | 26 ft | 5 kts | 108° |
| 2026-05-08 00:32 | 0.05065 | -51.06771 | 30 ft | 0 kts | 116° |
| 2026-05-08 00:32 | 0.05064 | -51.06769 | 30 ft | 2 kts | 116° |
| 2026-05-08 00:32 | 0.05060 | -51.06761 | 28 ft | 0 kts | 116° |